Time;durP1;ratioP1;P1;durP2;ratioP2;P2;SDS_P1;SDS_P2;PMS_P1;PMS_P2;Temp;Humidity;BMP_temperature;BMP_pressure;BME280_temperature;BME280_humidity;BME280_pressure;Samples;Min_cycle;Max_cycle;Signal;HPM_P1;HPM_P2
2021/11/08 00:01:55;;;;;;;25.80;7.13;;;9.50;98.30;;;;;;5156057;23;20489;-85
2021/11/08 00:04:00;;;;;;;26.20;6.90;;;9.50;98.30;;;;;;5156384;23;20445;-85
2021/11/08 00:06:05;;;;;;;24.17;7.90;;;9.60;98.30;;;;;;5165343;23;20425;-85
2021/11/08 00:08:17;;;;;;;20.93;5.13;;;9.50;98.30;;;;;;5164999;23;20485;-87
2021/11/08 00:10:33;;;;;;;25.07;5.63;;;9.60;98.30;;;;;;5164111;23;20486;-86
2021/11/08 00:12:36;;;;;;;42.13;14.60;;;9.50;98.30;;;;;;5163889;23;20489;-84
2021/11/08 00:14:41;;;;;;;33.83;9.03;;;9.60;98.30;;;;;;5156631;23;20455;-85
2021/11/08 00:16:47;;;;;;;23.67;6.80;;;9.60;98.30;;;;;;5157119;23;20604;-84
2021/11/08 00:19:03;;;;;;;27.57;6.20;;;9.60;98.30;;;;;;5162249;23;20408;-85
2021/11/08 00:21:07;;;;;;;21.60;4.80;;;9.60;98.30;;;;;;5161538;23;20823;-85
2021/11/08 00:23:26;;;;;;;21.67;7.10;;;9.60;98.30;;;;;;5148046;23;20449;-84
2021/11/08 00:25:42;;;;;;;30.53;6.20;;;9.60;98.30;;;;;;5154099;23;20409;-84
2021/11/08 00:27:45;;;;;;;22.13;5.23;;;9.60;98.30;;;;;;5161011;23;20460;-85
2021/11/08 00:29:49;;;;;;;17.20;5.33;;;9.60;98.30;;;;;;5153142;23;20820;-84
2021/11/08 00:31:52;;;;;;;24.53;5.37;;;9.60;98.30;;;;;;5160318;23;20759;-84
2021/11/08 00:33:55;;;;;;;18.50;5.00;;;9.50;98.30;;;;;;5152498;23;20521;-86
2021/11/08 00:36:00;;;;;;;19.30;5.70;;;9.50;98.30;;;;;;5158051;23;20484;-84
2021/11/08 00:38:05;;;;;;;21.33;5.47;;;9.50;98.30;;;;;;5160353;23;20835;-85
2021/11/08 00:40:09;;;;;;;32.30;6.17;;;9.50;98.30;;;;;;5154238;23;20433;-86
2021/11/08 00:42:12;;;;;;;23.33;5.60;;;9.50;98.30;;;;;;5160163;23;20477;-85
2021/11/08 00:44:15;;;;;;;23.00;5.70;;;9.40;98.30;;;;;;5159916;23;20433;-85
2021/11/08 00:46:18;;;;;;;26.43;6.80;;;9.50;98.30;;;;;;5153681;23;20570;-85
2021/11/08 00:48:23;;;;;;;16.93;5.13;;;9.40;98.30;;;;;;5160435;23;20414;-86
2021/11/08 00:50:26;;;;;;;17.97;4.93;;;9.40;98.30;;;;;;5160889;23;20449;-85
2021/11/08 00:52:29;;;;;;;25.37;5.83;;;9.40;98.30;;;;;;5159597;23;21143;-84
2021/11/08 00:54:40;;;;;;;14.23;4.50;;;9.40;98.30;;;;;;5151568;23;20501;-84
2021/11/08 00:56:50;;;;;;;18.13;4.70;;;9.40;98.30;;;;;;5151005;23;20903;-83
2021/11/08 00:58:52;;;;;;;22.17;7.67;;;9.40;98.30;;;;;;5152149;23;20435;-84
2021/11/08 01:01:02;;;;;;;31.43;4.80;;;9.40;98.30;;;;;;5161840;23;20507;-84
2021/11/08 01:03:06;;;;;;;22.03;4.60;;;9.40;98.30;;;;;;5158595;23;20473;-84
2021/11/08 01:05:11;;;;;;;16.33;4.43;;;9.40;98.30;;;;;;5149834;23;20428;-83
2021/11/08 01:07:14;;;;;;;19.77;4.93;;;9.40;98.30;;;;;;5151362;23;20429;-85
2021/11/08 01:09:18;;;;;;;16.27;5.10;;;9.40;98.30;;;;;;5159875;23;20422;-85
2021/11/08 01:11:22;;;;;;;16.23;5.30;;;9.40;98.30;;;;;;5159486;23;20516;-84
2021/11/08 01:13:26;;;;;;;21.50;6.40;;;9.40;98.30;;;;;;5152222;23;20454;-84
2021/11/08 01:15:29;;;;;;;20.27;5.20;;;9.40;98.30;;;;;;5159662;23;20452;-85
2021/11/08 01:17:33;;;;;;;19.50;5.50;;;9.40;98.30;;;;;;5151284;23;20824;-85
2021/11/08 01:19:37;;;;;;;15.73;3.93;;;9.40;98.30;;;;;;5161332;23;20428;-84
2021/11/08 01:21:40;;;;;;;19.23;4.43;;;9.40;98.30;;;;;;5159267;23;20903;-84
2021/11/08 01:23:43;;;;;;;23.30;7.03;;;9.40;98.30;;;;;;5153996;23;21033;-86
2021/11/08 01:25:53;;;;;;;21.17;5.33;;;9.40;98.30;;;;;;5154053;23;20880;-84
2021/11/08 01:28:00;;;;;;;19.80;7.00;;;9.40;98.30;;;;;;5162166;23;20911;-84
2021/11/08 01:30:15;;;;;;;12.97;4.40;;;9.40;98.30;;;;;;5154116;23;20453;-84
2021/11/08 01:32:18;;;;;;;9.57;3.57;;;9.40;98.30;;;;;;5154203;23;20457;-84
2021/11/08 01:34:21;;;;;;;23.30;5.10;;;9.30;98.30;;;;;;5153069;23;20429;-85
2021/11/08 01:36:27;;;;;;;19.10;4.00;;;9.30;98.30;;;;;;5153868;23;20461;-85
2021/11/08 01:38:37;;;;;;;14.90;4.33;;;9.20;98.30;;;;;;5161654;23;20428;-84
2021/11/08 01:40:42;;;;;;;16.20;5.90;;;9.20;98.30;;;;;;5153661;23;20429;-84
2021/11/08 01:42:45;;;;;;;16.17;4.50;;;9.20;98.30;;;;;;5162129;23;20457;-85
2021/11/08 01:44:49;;;;;;;17.10;5.20;;;9.20;98.30;;;;;;5154183;23;20497;-85
2021/11/08 01:46:52;;;;;;;27.57;9.03;;;9.20;98.30;;;;;;5163815;23;20803;-85
2021/11/08 01:48:55;;;;;;;18.13;5.47;;;9.30;98.30;;;;;;5161704;23;20459;-84
2021/11/08 01:50:58;;;;;;;29.30;6.80;;;9.30;98.30;;;;;;5156032;23;20467;-84
2021/11/08 01:53:02;;;;;;;24.93;4.60;;;9.30;98.30;;;;;;5153334;23;20458;-85
2021/11/08 01:55:06;;;;;;;17.07;4.57;;;9.30;98.30;;;;;;5162157;23;20839;-84
2021/11/08 01:57:10;;;;;;;15.70;5.77;;;9.30;98.30;;;;;;5161241;23;20480;-85
2021/11/08 01:59:14;;;;;;;15.63;5.30;;;9.30;98.30;;;;;;5162791;23;20492;-84
2021/11/08 02:01:21;;;;;;;22.73;5.00;;;9.30;98.30;;;;;;5154725;23;20432;-84
2021/11/08 02:03:28;;;;;;;21.33;4.20;;;9.30;98.30;;;;;;5152327;23;20441;-84
2021/11/08 02:05:30;;;;;;;16.97;4.43;;;9.30;98.30;;;;;;5155337;23;20517;-84
2021/11/08 02:07:35;;;;;;;13.87;4.37;;;9.30;98.30;;;;;;5152301;23;20707;-83
2021/11/08 02:09:39;;;;;;;17.00;4.10;;;9.30;98.30;;;;;;5160577;23;20802;-83
2021/11/08 02:11:43;;;;;;;29.83;6.20;;;9.20;98.30;;;;;;5152541;23;20516;-83
2021/11/08 02:13:46;;;;;;;20.20;5.90;;;9.20;98.30;;;;;;5158984;23;20483;-83
2021/11/08 02:15:49;;;;;;;17.53;5.17;;;9.20;98.30;;;;;;5158551;23;20441;-84
2021/11/08 02:17:53;;;;;;;11.43;4.93;;;9.20;98.30;;;;;;5149108;23;20432;-85
2021/11/08 02:19:59;;;;;;;17.70;3.63;;;9.20;98.30;;;;;;5157092;23;20492;-85
2021/11/08 02:22:05;;;;;;;21.83;4.00;;;9.20;98.30;;;;;;5148773;23;21022;-84
2021/11/08 02:24:14;;;;;;;24.90;4.80;;;9.20;98.30;;;;;;5149264;23;20415;-84
2021/11/08 02:26:18;;;;;;;19.57;4.20;;;9.20;98.30;;;;;;5148429;23;20433;-84
2021/11/08 02:28:22;;;;;;;12.13;4.33;;;9.20;98.30;;;;;;5156479;23;20517;-84
2021/11/08 02:30:28;;;;;;;19.00;6.13;;;9.20;98.30;;;;;;5149927;23;20429;-83
2021/11/08 02:32:33;;;;;;;20.10;5.57;;;9.20;98.30;;;;;;5150375;23;20464;-85
2021/11/08 02:34:35;;;;;;;8.87;4.50;;;9.20;98.30;;;;;;5157880;23;20424;-83
2021/11/08 02:36:42;;;;;;;14.47;5.27;;;9.20;98.30;;;;;;5157874;23;20520;-83
2021/11/08 02:38:48;;;;;;;21.93;6.80;;;9.20;98.30;;;;;;5155137;23;20456;-85
2021/11/08 02:40:53;;;;;;;16.70;5.20;;;9.20;98.30;;;;;;5147756;23;20445;-82
2021/11/08 02:42:59;;;;;;;19.17;7.23;;;9.20;98.30;;;;;;5155338;23;21051;-82
2021/11/08 02:45:06;;;;;;;21.03;6.10;;;9.20;98.30;;;;;;5147482;23;20453;-82
2021/11/08 02:47:11;;;;;;;14.00;5.63;;;9.20;98.30;;;;;;5155525;23;20424;-85
2021/11/08 02:49:15;;;;;;;17.57;5.27;;;9.20;98.30;;;;;;5146942;23;20443;-82
2021/11/08 02:51:21;;;;;;;17.70;5.20;;;9.10;98.30;;;;;;5157156;23;20921;-84
2021/11/08 02:53:26;;;;;;;17.90;5.30;;;9.10;98.30;;;;;;5156880;23;20448;-85
2021/11/08 02:55:31;;;;;;;9.03;4.00;;;9.10;98.30;;;;;;5159519;23;20428;-85
2021/11/08 02:57:36;;;;;;;17.23;4.30;;;9.10;98.30;;;;;;5158478;23;20431;-85
2021/11/08 02:59:39;;;;;;;21.03;5.00;;;9.00;98.30;;;;;;5149389;23;20418;-85
2021/11/08 03:01:46;;;;;;;10.10;4.30;;;9.00;98.30;;;;;;5148696;23;20619;-85
2021/11/08 03:03:53;;;;;;;17.23;4.40;;;9.00;98.30;;;;;;5149239;23;20833;-85
2021/11/08 03:06:02;;;;;;;16.37;4.27;;;9.00;98.30;;;;;;5148819;23;20417;-86
2021/11/08 03:08:12;;;;;;;16.17;4.40;;;9.00;98.30;;;;;;5148963;23;20435;-85
2021/11/08 03:10:19;;;;;;;13.33;4.63;;;9.00;98.30;;;;;;5148293;23;20447;-82
2021/11/08 03:12:27;;;;;;;7.50;3.63;;;9.00;98.30;;;;;;5146222;23;20420;-85
2021/11/08 03:14:32;;;;;;;13.23;3.90;;;9.00;98.30;;;;;;5145900;23;20423;-85
2021/11/08 03:16:48;;;;;;;17.20;4.70;;;9.00;98.30;;;;;;5146337;23;20488;-84
2021/11/08 03:18:56;;;;;;;13.23;3.83;;;9.00;98.30;;;;;;5144866;23;20432;-84
2021/11/08 03:20:59;;;;;;;9.77;3.70;;;9.10;98.30;;;;;;5146540;23;20409;-85
2021/11/08 03:23:04;;;;;;;14.53;4.77;;;9.10;98.30;;;;;;5146444;23;20534;-85
2021/11/08 03:25:13;;;;;;;8.57;3.07;;;9.10;98.30;;;;;;5153341;23;20907;-84
2021/11/08 03:27:24;;;;;;;9.23;4.10;;;9.10;98.30;;;;;;5144677;23;20532;-85
2021/11/08 03:29:27;;;;;;;15.67;4.50;;;9.20;98.30;;;;;;5148489;23;20496;-85
2021/11/08 03:31:36;;;;;;;10.57;3.20;;;9.20;98.30;;;;;;5155110;23;20504;-85
2021/11/08 03:33:39;;;;;;;14.57;4.00;;;9.20;98.30;;;;;;5148115;23;20536;-86
2021/11/08 03:35:43;;;;;;;11.93;3.57;;;9.20;98.30;;;;;;5158835;23;20428;-85
2021/11/08 03:37:46;;;;;;;13.70;3.90;;;9.10;98.30;;;;;;5148069;23;20431;-85
2021/11/08 03:39:49;;;;;;;14.53;4.23;;;9.20;98.30;;;;;;5155545;23;20500;-84
2021/11/08 03:41:53;;;;;;;12.50;3.20;;;9.20;98.30;;;;;;5155071;23;20941;-84
2021/11/08 03:43:58;;;;;;;10.53;4.13;;;9.20;98.30;;;;;;5154930;23;20441;-85
2021/11/08 03:46:02;;;;;;;13.97;3.60;;;9.20;98.30;;;;;;5146688;23;20924;-84
2021/11/08 03:48:07;;;;;;;6.13;3.50;;;9.20;98.30;;;;;;5153086;23;20524;-84
2021/11/08 03:50:11;;;;;;;13.00;3.67;;;9.20;98.30;;;;;;5153485;23;20426;-85
2021/11/08 03:52:14;;;;;;;9.90;3.73;;;9.20;98.30;;;;;;5145072;23;20435;-85
2021/11/08 03:54:17;;;;;;;12.00;3.90;;;9.30;98.30;;;;;;5152543;23;20441;-84
2021/11/08 03:56:20;;;;;;;12.90;5.63;;;9.20;98.30;;;;;;5154334;23;20425;-84
2021/11/08 03:58:23;;;;;;;10.10;5.20;;;9.20;98.30;;;;;;5144816;23;20425;-84
2021/11/08 04:00:29;;;;;;;8.10;4.43;;;9.20;98.30;;;;;;5157839;23;20412;-84
2021/11/08 04:02:32;;;;;;;8.63;4.33;;;9.10;98.30;;;;;;5154380;23;20443;-85
2021/11/08 04:04:35;;;;;;;8.70;4.60;;;9.10;98.30;;;;;;5146788;23;20440;-85
2021/11/08 04:06:39;;;;;;;9.63;3.93;;;9.10;98.30;;;;;;5145982;23;20434;-85
2021/11/08 04:08:42;;;;;;;7.90;3.87;;;9.00;98.30;;;;;;5146909;23;20442;-84
2021/11/08 04:10:47;;;;;;;6.30;4.10;;;9.00;98.30;;;;;;5147112;23;20437;-85
2021/11/08 04:12:52;;;;;;;13.83;3.83;;;9.00;98.30;;;;;;5147748;23;20449;-84
2021/11/08 04:14:56;;;;;;;14.37;4.80;;;9.00;98.30;;;;;;5148030;23;20752;-85
2021/11/08 04:17:00;;;;;;;9.77;5.10;;;9.00;98.30;;;;;;5156626;23;20423;-84
2021/11/08 04:19:04;;;;;;;12.73;4.93;;;9.00;98.30;;;;;;5148046;23;20444;-85
2021/11/08 04:21:10;;;;;;;12.70;4.63;;;9.00;98.30;;;;;;5155530;23;20427;-84
2021/11/08 04:23:15;;;;;;;14.07;5.20;;;9.00;98.30;;;;;;5146010;23;20482;-84
2021/11/08 04:25:20;;;;;;;10.83;5.60;;;9.00;98.30;;;;;;5150488;23;20432;-84
2021/11/08 04:27:23;;;;;;;9.00;5.13;;;8.90;98.30;;;;;;5145110;23;20437;-84
2021/11/08 04:29:26;;;;;;;12.60;5.43;;;8.90;98.30;;;;;;5154747;23;20448;-83
2021/11/08 04:31:34;;;;;;;10.40;5.20;;;8.90;98.30;;;;;;5154590;23;20420;-84
2021/11/08 04:33:45;;;;;;;12.27;5.47;;;8.90;98.30;;;;;;5144395;23;21038;-84
2021/11/08 04:35:58;;;;;;;11.80;5.10;;;8.90;98.30;;;;;;5154486;23;20454;-84
2021/11/08 04:38:12;;;;;;;9.70;4.20;;;8.90;98.30;;;;;;5145055;23;20453;-84
2021/11/08 04:40:24;;;;;;;9.87;5.50;;;8.90;98.30;;;;;;5146963;23;20504;-84
2021/11/08 04:42:32;;;;;;;15.77;5.70;;;8.80;98.30;;;;;;5147981;23;20891;-83
2021/11/08 04:49:53;;;;;;;16.87;6.73;;;8.90;98.30;;;;;;5147337;23;20455;-85
2021/11/08 04:52:06;;;;;;;14.80;7.40;;;8.90;98.30;;;;;;5146360;23;20412;-84
2021/11/08 04:54:16;;;;;;;12.13;5.40;;;8.80;98.30;;;;;;5155487;23;20942;-85
2021/11/08 04:57:04;;;;;;;10.90;6.13;;;8.80;98.30;;;;;;5146042;23;20515;-85
2021/11/08 05:23:19;;;;;;;13.03;6.23;;;8.50;98.30;;;;;;5115778;23;20537;-86
2021/11/08 05:27:54;;;;;;;12.70;6.87;;;8.60;98.30;;;;;;5104471;23;20558;-84
2021/11/08 05:30:07;;;;;;;16.43;8.10;;;8.60;98.30;;;;;;5155840;23;20522;-85
2021/11/08 05:32:10;;;;;;;19.00;7.80;;;8.60;98.30;;;;;;5156241;23;20504;-84
2021/11/08 05:34:14;;;;;;;31.40;7.97;;;8.60;98.30;;;;;;5148644;23;20452;-84
2021/11/08 05:36:17;;;;;;;13.73;5.70;;;8.60;98.30;;;;;;5158175;23;20448;-86
2021/11/08 05:38:25;;;;;;;20.60;6.93;;;8.60;98.30;;;;;;5145538;23;20429;-84
2021/11/08 05:40:30;;;;;;;20.30;6.77;;;8.60;98.30;;;;;;5155277;23;20421;-84
2021/11/08 05:42:37;;;;;;;20.33;7.97;;;8.60;98.30;;;;;;5156004;23;20478;-84
2021/11/08 05:44:41;;;;;;;25.57;6.90;;;8.50;98.30;;;;;;5157598;23;20892;-86
2021/11/08 05:46:44;;;;;;;16.40;6.70;;;8.50;98.30;;;;;;5157155;23;20423;-83
2021/11/08 05:48:47;;;;;;;19.07;7.53;;;8.60;98.30;;;;;;5155472;23;20444;-86
2021/11/08 05:50:50;;;;;;;13.77;5.60;;;8.50;98.30;;;;;;5156695;23;20427;-84
2021/11/08 05:52:54;;;;;;;17.67;6.10;;;8.50;98.30;;;;;;5148604;23;20743;-84
2021/11/08 05:54:59;;;;;;;16.63;6.20;;;8.50;98.30;;;;;;5148466;23;20835;-84
2021/11/08 05:57:20;;;;;;;21.60;8.03;;;8.50;98.30;;;;;;5156736;23;20517;-85
2021/11/08 06:49:12;;;;;;;15.97;5.47;;;8.30;98.30;;;;;;5151678;23;20459;-85
2021/11/08 06:51:15;;;;;;;14.63;4.77;;;8.30;98.30;;;;;;5158805;23;20428;-85
2021/11/08 06:53:19;;;;;;;16.10;4.63;;;8.30;98.30;;;;;;5150605;23;20453;-85
2021/11/08 06:55:22;;;;;;;12.77;4.80;;;8.30;98.30;;;;;;5151022;23;20502;-85
2021/11/08 06:57:31;;;;;;;12.63;4.63;;;8.30;98.30;;;;;;5151480;23;20437;-85
2021/11/08 06:59:35;;;;;;;16.13;5.83;;;8.20;98.30;;;;;;5158974;23;20431;-85
2021/11/08 07:01:39;;;;;;;10.20;3.63;;;8.30;98.30;;;;;;5158723;23;20833;-85
2021/11/08 07:03:42;;;;;;;14.90;5.60;;;8.20;98.30;;;;;;5160092;23;20451;-85
2021/11/08 07:05:45;;;;;;;18.73;5.87;;;8.20;98.30;;;;;;5160138;23;20415;-86
2021/11/08 07:07:48;;;;;;;16.23;5.27;;;8.30;98.30;;;;;;5159863;23;20750;-85
2021/11/08 07:09:51;;;;;;;16.03;5.53;;;8.30;98.30;;;;;;5159743;23;20456;-84
2021/11/08 07:11:55;;;;;;;21.60;4.80;;;8.20;98.30;;;;;;5159835;23;20485;-84
2021/11/08 07:13:57;;;;;;;18.27;5.27;;;8.20;98.30;;;;;;5158244;23;20444;-85
2021/11/08 07:16:02;;;;;;;17.50;4.87;;;8.20;98.30;;;;;;5158872;23;20796;-84
2021/11/08 07:18:06;;;;;;;17.20;4.37;;;8.20;98.30;;;;;;5158863;23;20429;-83
2021/11/08 07:20:09;;;;;;;16.03;4.67;;;8.20;98.30;;;;;;5158543;23;20501;-84
2021/11/08 07:22:12;;;;;;;8.10;3.90;;;8.10;98.30;;;;;;5159017;23;20425;-83
2021/11/08 07:24:16;;;;;;;17.00;4.50;;;8.10;98.30;;;;;;5150990;23;20468;-84
2021/11/08 07:26:19;;;;;;;11.53;3.73;;;8.20;98.30;;;;;;5158465;23;20474;-84
2021/11/08 07:28:22;;;;;;;18.37;4.90;;;8.10;98.30;;;;;;5159158;23;20480;-83
2021/11/08 07:30:25;;;;;;;13.27;6.00;;;8.10;98.30;;;;;;5159904;23;20466;-83
2021/11/08 07:32:30;;;;;;;16.23;5.23;;;8.10;98.30;;;;;;5159305;23;20471;-83
2021/11/08 07:34:34;;;;;;;16.43;5.83;;;8.20;98.30;;;;;;5150964;23;20428;-84
2021/11/08 07:36:37;;;;;;;14.50;4.60;;;8.20;98.30;;;;;;5158382;23;20555;-83
2021/11/08 07:38:40;;;;;;;19.83;5.47;;;8.20;98.30;;;;;;5158351;23;20511;-84
2021/11/08 07:40:43;;;;;;;12.93;4.33;;;8.30;98.30;;;;;;5158885;23;20427;-84
2021/11/08 07:42:47;;;;;;;15.13;4.60;;;8.30;98.30;;;;;;5159110;23;20448;-84
2021/11/08 07:44:50;;;;;;;15.50;4.43;;;8.40;98.30;;;;;;5159288;23;20516;-84
2021/11/08 07:46:53;;;;;;;16.23;5.80;;;8.40;98.30;;;;;;5151030;23;20819;-84
2021/11/08 07:48:58;;;;;;;16.97;4.80;;;8.40;98.30;;;;;;5159302;23;20432;-84
2021/11/08 07:51:00;;;;;;;11.60;4.07;;;8.50;98.30;;;;;;5159814;23;20424;-84
2021/11/08 07:53:04;;;;;;;14.00;4.70;;;8.50;98.30;;;;;;5160300;23;20527;-84
2021/11/08 07:55:08;;;;;;;15.23;4.83;;;8.60;98.30;;;;;;5159274;23;20452;-84
2021/11/08 07:57:11;;;;;;;15.53;4.93;;;8.70;98.30;;;;;;5157019;23;20497;-83
2021/11/08 07:59:14;;;;;;;10.00;4.00;;;8.80;98.30;;;;;;5155555;23;20512;-85
2021/11/08 08:01:17;;;;;;;17.30;4.13;;;8.80;98.30;;;;;;5156982;23;20425;-83
2021/11/08 08:03:23;;;;;;;12.20;3.97;;;8.90;98.30;;;;;;5149718;23;20459;-84
2021/11/08 08:05:28;;;;;;;8.83;4.20;;;9.00;98.30;;;;;;5150978;23;20440;-83
2021/11/08 08:07:34;;;;;;;11.27;3.73;;;9.00;98.30;;;;;;5150261;23;20513;-84
2021/11/08 08:09:37;;;;;;;18.30;5.00;;;9.10;98.30;;;;;;5150998;23;20502;-84
2021/11/08 08:11:47;;;;;;;9.80;3.50;;;9.00;98.30;;;;;;5159548;23;20441;-84
2021/11/08 08:13:51;;;;;;;11.77;4.07;;;9.10;98.30;;;;;;5168704;23;20445;-85
2021/11/08 08:15:58;;;;;;;11.30;4.07;;;9.10;98.30;;;;;;5161143;23;20446;-84
2021/11/08 08:18:04;;;;;;;11.57;3.97;;;9.20;98.30;;;;;;5161961;23;20432;-85
2021/11/08 08:20:11;;;;;;;9.00;3.20;;;9.20;98.30;;;;;;5170360;23;20421;-83
2021/11/08 08:22:15;;;;;;;18.37;4.50;;;9.10;98.30;;;;;;5170052;23;20417;-84
2021/11/08 08:24:18;;;;;;;11.10;4.43;;;9.00;98.30;;;;;;5170267;23;20444;-85
2021/11/08 08:26:23;;;;;;;8.07;4.07;;;9.00;98.30;;;;;;5170652;23;20458;-85
2021/11/08 08:28:26;;;;;;;11.00;4.23;;;8.90;98.30;;;;;;5161681;23;20444;-83
2021/11/08 08:30:30;;;;;;;11.10;4.10;;;9.00;98.30;;;;;;5169818;23;20426;-83
2021/11/08 08:32:34;;;;;;;14.40;4.60;;;9.00;98.30;;;;;;5169977;23;20442;-86
2021/11/08 08:34:37;;;;;;;14.60;4.30;;;8.90;98.30;;;;;;5170142;23;20481;-83
2021/11/08 08:36:41;;;;;;;10.07;4.07;;;8.90;98.30;;;;;;5162181;23;20442;-84
2021/11/08 08:38:45;;;;;;;10.20;4.17;;;8.90;98.30;;;;;;5169942;23;20442;-83
2021/11/08 08:40:50;;;;;;;10.40;3.87;;;8.90;98.30;;;;;;5169725;23;20477;-83
2021/11/08 08:42:53;;;;;;;12.57;5.50;;;8.80;98.30;;;;;;5170587;23;20534;-85
2021/11/08 08:44:56;;;;;;;14.13;4.10;;;8.70;98.30;;;;;;5161816;23;20445;-82
2021/11/08 08:47:00;;;;;;;10.87;4.63;;;8.80;98.30;;;;;;5169843;23;20407;-85
2021/11/08 08:49:04;;;;;;;15.60;4.30;;;8.80;98.30;;;;;;5162383;23;20418;-85
2021/11/08 08:51:08;;;;;;;14.03;4.77;;;8.80;98.30;;;;;;5170041;23;20428;-85
2021/11/08 08:53:12;;;;;;;12.70;4.00;;;8.90;98.30;;;;;;5170468;23;20843;-84
2021/11/08 08:55:17;;;;;;;10.47;4.03;;;8.90;98.30;;;;;;5161706;23;20508;-84
2021/11/08 08:57:20;;;;;;;12.13;4.13;;;8.80;98.30;;;;;;5169336;23;20440;-84
2021/11/08 08:59:24;;;;;;;9.53;3.70;;;8.80;98.30;;;;;;5169757;23;20490;-85
2021/11/08 09:01:27;;;;;;;9.90;4.50;;;8.90;98.30;;;;;;5170029;23;20721;-84
2021/11/08 09:03:30;;;;;;;9.87;4.20;;;8.90;98.30;;;;;;5161214;23;20870;-86
2021/11/08 09:05:33;;;;;;;10.43;4.23;;;8.90;98.30;;;;;;5160891;23;20958;-83
2021/11/08 09:07:36;;;;;;;11.00;3.90;;;8.90;98.30;;;;;;5169753;23;20443;-85
2021/11/08 09:09:39;;;;;;;7.53;4.73;;;8.90;98.30;;;;;;5169816;23;20480;-84
2021/11/08 09:11:44;;;;;;;13.27;4.13;;;9.00;98.30;;;;;;5169583;23;21167;-85
2021/11/08 09:13:47;;;;;;;13.93;5.57;;;9.20;98.30;;;;;;5161459;23;20461;-85
2021/11/08 09:15:50;;;;;;;8.93;3.87;;;9.30;98.30;;;;;;5169620;23;20424;-85
2021/11/08 09:17:54;;;;;;;13.20;3.90;;;9.40;98.30;;;;;;5161460;23;20482;-86
2021/11/08 09:19:57;;;;;;;10.80;3.83;;;9.40;98.30;;;;;;5169594;23;20502;-83
2021/11/08 09:22:00;;;;;;;6.07;3.57;;;9.40;98.30;;;;;;5169636;23;20438;-83
2021/11/08 09:24:06;;;;;;;10.23;3.73;;;9.50;98.30;;;;;;5161539;23;20474;-83
2021/11/08 09:26:10;;;;;;;6.93;3.40;;;9.50;98.30;;;;;;5162144;23;20505;-85
2021/11/08 09:28:15;;;;;;;15.60;6.23;;;9.50;98.30;;;;;;5161295;23;20414;-83
2021/11/08 09:30:21;;;;;;;10.17;3.40;;;9.50;98.30;;;;;;5165302;23;20433;-83
2021/11/08 09:32:24;;;;;;;9.93;3.57;;;9.60;98.30;;;;;;5152330;23;20418;-82
2021/11/08 09:34:28;;;;;;;11.83;4.07;;;9.60;98.30;;;;;;5163772;23;20427;-85
2021/11/08 09:36:32;;;;;;;7.83;3.27;;;9.90;98.30;;;;;;5166179;23;20509;-84
2021/11/08 09:38:38;;;;;;;8.23;3.40;;;10.10;98.30;;;;;;5157577;23;20428;-83
2021/11/08 09:40:44;;;;;;;6.60;3.20;;;10.30;98.30;;;;;;5165582;23;20496;-85
2021/11/08 09:42:48;;;;;;;7.70;4.13;;;10.60;98.30;;;;;;5167246;23;20498;-84
2021/11/08 09:44:52;;;;;;;12.63;4.87;;;10.50;98.30;;;;;;5160444;23;20504;-85
2021/11/08 09:46:57;;;;;;;10.40;3.83;;;10.40;98.30;;;;;;5169700;23;20485;-85
2021/11/08 09:49:02;;;;;;;7.03;3.07;;;10.10;98.30;;;;;;5169613;23;20436;-84
2021/11/08 09:51:05;;;;;;;8.83;3.57;;;9.90;98.30;;;;;;5170494;23;20418;-83
2021/11/08 09:53:09;;;;;;;10.43;3.47;;;9.70;98.30;;;;;;5161674;23;20458;-83
2021/11/08 09:55:15;;;;;;;13.37;3.20;;;9.70;98.30;;;;;;5163067;23;20460;-83
2021/11/08 09:57:38;;;;;;;10.83;3.97;;;9.60;98.30;;;;;;5162223;23;20935;-83
2021/11/08 09:59:41;;;;;;;5.10;2.93;;;9.70;98.30;;;;;;5170924;23;20419;-85
2021/11/08 10:01:48;;;;;;;8.80;3.30;;;9.60;98.30;;;;;;5162880;23;21231;-85
2021/11/08 10:03:51;;;;;;;19.83;3.80;;;9.60;98.30;;;;;;5170524;23;20426;-84
2021/11/08 10:05:56;;;;;;;7.70;3.70;;;9.60;98.30;;;;;;5161913;23;20494;-85
2021/11/08 10:08:00;;;;;;;14.03;4.00;;;9.50;98.30;;;;;;5170795;23;20444;-84
2021/11/08 10:10:03;;;;;;;9.63;4.10;;;9.50;98.30;;;;;;5170652;23;20436;-82
2021/11/08 10:12:08;;;;;;;10.60;3.70;;;9.50;98.30;;;;;;5170989;23;20425;-84
2021/11/08 10:14:11;;;;;;;7.00;3.50;;;9.50;98.30;;;;;;5162816;23;20457;-85
2021/11/08 10:16:19;;;;;;;14.60;3.67;;;9.40;98.30;;;;;;5171030;23;20423;-84
2021/11/08 10:18:24;;;;;;;6.47;3.40;;;9.40;98.30;;;;;;5162748;23;20433;-84
2021/11/08 10:20:32;;;;;;;12.20;4.20;;;9.40;98.30;;;;;;5170570;23;20442;-83
2021/11/08 10:22:37;;;;;;;9.27;3.80;;;9.40;98.30;;;;;;5169939;23;20505;-84
2021/11/08 10:24:41;;;;;;;14.20;4.93;;;9.30;98.30;;;;;;5170878;23;20413;-83
2021/11/08 10:26:44;;;;;;;11.83;5.13;;;9.30;98.30;;;;;;5169983;23;20426;-82
2021/11/08 10:28:51;;;;;;;10.47;4.30;;;9.30;98.30;;;;;;5162085;23;20441;-83
2021/11/08 10:30:59;;;;;;;9.47;5.30;;;9.30;98.30;;;;;;5170588;23;20441;-85
2021/11/08 10:33:13;;;;;;;12.30;4.70;;;9.30;98.30;;;;;;5161955;23;20477;-85
2021/11/08 10:35:17;;;;;;;7.27;3.77;;;9.20;98.30;;;;;;5169345;23;20420;-85
2021/11/08 10:37:25;;;;;;;11.60;5.20;;;9.30;98.30;;;;;;5169544;23;20509;-84
2021/11/08 10:39:32;;;;;;;7.97;4.70;;;9.30;98.30;;;;;;5169320;23;20448;-82
2021/11/08 10:41:39;;;;;;;17.33;6.03;;;9.20;98.30;;;;;;5160323;23;20430;-84
2021/11/08 10:43:44;;;;;;;6.90;4.90;;;9.20;98.30;;;;;;5168631;23;20469;-84
2021/11/08 10:45:49;;;;;;;9.90;4.37;;;9.20;98.30;;;;;;5169228;23;20428;-84
2021/11/08 10:47:59;;;;;;;12.83;5.73;;;9.20;98.30;;;;;;5168609;23;20422;-84
2021/11/08 10:50:13;;;;;;;13.30;5.30;;;9.20;98.30;;;;;;5169376;23;20433;-84
2021/11/08 10:52:19;;;;;;;11.93;4.90;;;9.20;98.30;;;;;;5169245;23;20449;-84
2021/11/08 10:54:26;;;;;;;8.70;4.40;;;9.20;98.30;;;;;;5160875;23;20461;-84
2021/11/08 10:56:32;;;;;;;8.70;4.10;;;9.20;98.30;;;;;;5169002;23;20406;-85
2021/11/08 10:58:36;;;;;;;14.10;5.10;;;9.30;98.30;;;;;;5169271;23;20421;-85
2021/11/08 11:01:03;;;;;;;12.67;5.00;;;9.30;98.30;;;;;;5160813;23;20433;-84
2021/11/08 11:03:13;;;;;;;13.77;5.60;;;9.30;98.30;;;;;;5131443;23;20452;-84
2021/11/08 11:05:17;;;;;;;14.90;5.23;;;9.30;98.30;;;;;;5156994;23;20421;-83
2021/11/08 11:07:24;;;;;;;18.67;5.63;;;9.20;98.30;;;;;;5154595;23;20466;-83
2021/11/08 11:09:31;;;;;;;12.77;5.13;;;9.30;98.30;;;;;;5165119;23;20429;-83
2021/11/08 11:11:35;;;;;;;15.80;5.93;;;9.30;98.30;;;;;;5158767;23;20430;-84
2021/11/08 11:13:38;;;;;;;11.60;4.77;;;9.30;98.30;;;;;;5170357;23;20431;-85
2021/11/08 11:15:43;;;;;;;11.70;4.27;;;9.30;98.30;;;;;;5169307;23;20426;-85
2021/11/08 11:17:48;;;;;;;13.53;5.53;;;9.30;98.30;;;;;;5169471;23;20453;-83
2021/11/08 11:19:52;;;;;;;21.13;5.27;;;9.30;98.30;;;;;;5169866;23;20405;-85
2021/11/08 11:21:58;;;;;;;14.67;5.30;;;9.40;98.30;;;;;;5161949;23;20435;-83
2021/11/08 11:24:05;;;;;;;16.80;5.40;;;9.40;98.30;;;;;;5161377;23;20452;-85
2021/11/08 11:26:09;;;;;;;14.80;6.20;;;9.40;98.30;;;;;;5162116;23;20466;-83
2021/11/08 11:28:15;;;;;;;13.57;5.80;;;9.40;98.30;;;;;;5160701;23;20439;-84
2021/11/08 11:30:20;;;;;;;12.03;5.60;;;9.30;98.30;;;;;;5168981;23;20464;-84
2021/11/08 11:32:27;;;;;;;12.73;5.50;;;9.30;98.30;;;;;;5169836;23;20421;-84
2021/11/08 11:34:33;;;;;;;8.20;5.30;;;9.30;98.30;;;;;;5161353;23;20436;-84
2021/11/08 11:36:37;;;;;;;10.83;5.80;;;9.30;98.30;;;;;;5170133;23;20438;-85
2021/11/08 11:38:44;;;;;;;9.70;6.13;;;9.30;98.30;;;;;;5161418;23;20506;-86
2021/11/08 11:41:02;;;;;;;11.20;5.67;;;9.30;98.30;;;;;;5170935;23;20418;-85
2021/11/08 11:43:08;;;;;;;11.27;4.90;;;9.30;98.30;;;;;;5170151;23;20468;-84
2021/11/08 11:45:11;;;;;;;12.50;5.43;;;9.30;98.30;;;;;;5170948;23;20454;-85
2021/11/08 11:47:16;;;;;;;15.43;7.33;;;9.30;98.30;;;;;;5162288;23;20560;-85
2021/11/08 11:49:20;;;;;;;14.03;6.30;;;9.30;98.30;;;;;;5171070;23;20425;-85
2021/11/08 11:51:26;;;;;;;13.80;7.20;;;9.40;98.30;;;;;;5169914;23;20449;-84
2021/11/08 11:53:32;;;;;;;14.00;5.80;;;9.40;98.30;;;;;;5170019;23;20434;-83
2021/11/08 11:55:38;;;;;;;13.93;6.33;;;9.30;98.30;;;;;;5161905;23;20485;-84
2021/11/08 11:57:43;;;;;;;13.00;5.70;;;9.30;98.30;;;;;;5170586;23;20482;-83
2021/11/08 11:59:46;;;;;;;19.67;6.20;;;9.30;98.30;;;;;;5170603;23;20429;-83
2021/11/08 12:02:03;;;;;;;18.13;6.60;;;9.30;98.30;;;;;;5161506;23;20438;-86
2021/11/08 12:04:21;;;;;;;11.47;6.67;;;9.30;98.30;;;;;;5169136;23;20442;-88
2021/11/08 12:06:37;;;;;;;12.70;6.70;;;9.30;98.30;;;;;;5160868;23;20494;-87
2021/11/08 12:09:00;;;;;;;13.67;6.70;;;9.30;98.30;;;;;;5169515;23;20456;-86
2021/11/08 12:11:08;;;;;;;12.90;6.60;;;9.30;98.30;;;;;;5161326;23;20444;-87
2021/11/08 12:13:26;;;;;;;13.53;6.80;;;9.30;98.30;;;;;;5161662;23;20453;-85
2021/11/08 12:15:33;;;;;;;22.00;7.80;;;9.30;98.30;;;;;;5170022;23;20504;-84
2021/11/08 12:17:40;;;;;;;9.60;5.97;;;9.30;98.30;;;;;;5168885;23;20514;-86